View the latest observations near Atlantic Tropical Depression Five, Central Pacific Tropical Storm Lowell and East Pacific Hurricane Karina.
Station 45220 - Search and Rescue Data
Average surface winds - six hour block.
| Date (UTC) | Average Wind Dir (True) |
Average Wind Spd (Knots) |
Wind Obs |
Average Seas (Feet) |
Wave Obs |
Air Temp. (Degrees F.) |
Air Temp. Obs |
Water Temp. (Degrees F.) |
Water Temp. Obs |
|---|---|---|---|---|---|---|---|---|---|
| 2026-08-31 1800Z | 218 | 8 | 10 | 1 | 10 | 73 | 10 | - | 0 |
| 2026-08-31 1200Z | 187 | 8 | 36 | 1 | 36 | 71 | 36 | - | 0 |
| 2026-08-31 0600Z | 207 | 7 | 36 | 1 | 36 | 70 | 36 | - | 0 |
| 2026-08-31 0000Z | 229 | 6 | 36 | 1 | 36 | 70 | 36 | - | 0 |
| 2026-08-30 1800Z | 316 | 1 | 36 | 1 | 36 | 70 | 36 | - | 0 |
| 2026-08-30 1200Z | 226 | 6 | 32 | 1 | 32 | 73 | 32 | - | 0 |
| 2026-08-30 0600Z | 197 | 6 | 34 | 1 | 34 | 73 | 34 | - | 0 |
| 2026-08-30 0000Z | 209 | 4 | 34 | 1 | 34 | 75 | 34 | - | 0 |
| 2026-08-29 1800Z | 257 | 3 | 36 | 1 | 36 | 73 | 36 | - | 0 |
| 2026-08-29 1200Z | 190 | 6 | 18 | 1 | 18 | 68 | 18 | - | 0 |
| 2026-08-29 0600Z | 241 | 4 | 36 | 1 | 36 | 69 | 36 | - | 0 |
| 2026-08-29 0000Z | 235 | 3 | 32 | 0 | 32 | 70 | 32 | - | 0 |
| 2026-08-28 1800Z | 70 | 3 | 36 | 1 | 36 | 67 | 36 | - | 0 |
| 2026-08-28 1200Z | 30 | 10 | 36 | 2 | 36 | 66 | 36 | - | 0 |
| 2026-08-28 0600Z | 3 | 8 | 36 | 2 | 36 | 71 | 36 | - | 0 |
| 2026-08-28 0000Z | 261 | 10 | 36 | 3 | 36 | 73 | 36 | - | 0 |
| 2026-08-27 1800Z | 243 | 14 | 36 | 3 | 36 | 73 | 36 | - | 0 |
| 2026-08-27 1200Z | 217 | 13 | 36 | 3 | 36 | 72 | 36 | - | 0 |
| 2026-08-27 0600Z | 201 | 13 | 36 | 1 | 36 | 73 | 36 | - | 0 |
| 2026-08-27 0000Z | 144 | 3 | 36 | 1 | 36 | 75 | 36 | - | 0 |
| 2026-08-26 1800Z | 55 | 1 | 36 | 0 | 36 | 74 | 36 | - | 0 |
The six-hour averages are calculated as follows:
- The 0000Z average uses data from 2100Z to 0259Z.
- The 0600Z average uses data from 0300Z to 0859Z.
- The 1200Z average uses data from 0900Z to 1459Z.
- The 1800Z average uses data from 1500Z to 2059Z.
Display all available SAR data (up to 45 days)



